createdAt,value
2023-07-03T00:01:19.732Z,3.37
2023-07-03T00:04:24.865Z,3.03
2023-07-03T00:07:27.686Z,3.30
2023-07-03T00:10:30.576Z,3.10
2023-07-03T00:13:34.816Z,3.00
2023-07-03T00:16:37.575Z,3.70
2023-07-03T00:19:40.429Z,3.00
2023-07-03T00:22:43.362Z,3.97
2023-07-03T00:25:47.521Z,3.30
2023-07-03T00:28:52.034Z,3.45
2023-07-03T00:31:54.821Z,2.90
2023-07-03T00:34:57.912Z,3.40
2023-07-03T00:38:00.624Z,3.30
2023-07-03T00:41:03.525Z,3.50
2023-07-03T00:44:10.825Z,3.58
2023-07-03T00:47:13.662Z,3.30
2023-07-03T00:50:16.585Z,2.90
2023-07-03T00:53:19.281Z,3.53
2023-07-03T00:56:22.159Z,3.35
2023-07-03T00:59:26.312Z,3.38
2023-07-03T01:02:36.458Z,3.13
2023-07-03T01:05:44.574Z,3.40
2023-07-03T01:08:50.109Z,3.33
2023-07-03T01:11:53.429Z,3.80
2023-07-03T01:15:00.645Z,3.65
2023-07-03T01:18:06.040Z,3.70
2023-07-03T01:21:16.685Z,3.57
2023-07-03T01:24:31.828Z,3.58
2023-07-03T01:27:37.547Z,3.90
2023-07-03T01:30:43.333Z,3.70
2023-07-03T01:33:46.776Z,3.43
2023-07-03T01:36:50.440Z,3.50
2023-07-03T01:39:56.390Z,3.17
2023-07-03T01:42:59.928Z,3.50
2023-07-03T01:46:03.878Z,3.00
2023-07-03T01:49:13.027Z,3.63
2023-07-03T01:52:20.508Z,3.67
2023-07-03T01:55:36.154Z,3.30
2023-07-03T01:58:45.489Z,3.20
2023-07-03T02:01:51.686Z,3.47
2023-07-03T02:05:00.052Z,3.50
2023-07-03T02:08:04.907Z,3.13
2023-07-03T02:11:16.878Z,3.08
2023-07-03T02:14:19.793Z,3.80
2023-07-03T02:17:22.537Z,3.03
2023-07-03T02:20:25.400Z,3.67
2023-07-03T02:23:28.473Z,3.67
2023-07-03T02:26:32.533Z,4.05
2023-07-03T02:29:35.424Z,4.05
2023-07-03T02:32:39.879Z,4.13
2023-07-03T02:35:42.866Z,4.00
2023-07-03T02:38:45.758Z,4.83
2023-07-03T02:41:51.040Z,4.40
2023-07-03T02:44:54.514Z,4.63
2023-07-03T02:47:57.252Z,4.97
2023-07-03T02:51:00.316Z,4.83
2023-07-03T02:54:05.312Z,4.07
2023-07-03T02:57:09.439Z,3.97
2023-07-03T03:00:14.412Z,4.43
2023-07-03T03:03:17.240Z,3.97
2023-07-03T03:06:20.216Z,3.93
2023-07-03T03:09:24.422Z,3.70
2023-07-03T03:12:28.686Z,3.63
2023-07-03T03:15:35.458Z,3.50
2023-07-03T03:18:38.200Z,3.75
2023-07-03T03:21:41.001Z,3.97
2023-07-03T03:24:44.105Z,3.70
2023-07-03T03:27:48.179Z,3.50
2023-07-03T03:30:51.106Z,4.03
2023-07-03T03:33:53.910Z,3.58
2023-07-03T03:36:57.389Z,3.40
2023-07-03T03:40:00.504Z,3.60
2023-07-03T03:43:04.628Z,3.40
2023-07-03T03:46:07.586Z,3.75
2023-07-03T03:49:11.829Z,3.60
2023-07-03T03:52:14.750Z,3.53
2023-07-03T03:55:17.621Z,3.80
2023-07-03T03:58:22.482Z,3.80
2023-07-03T04:01:25.292Z,3.30
2023-07-03T04:04:28.102Z,3.45
2023-07-03T04:07:30.917Z,3.40
2023-07-03T04:10:33.797Z,3.50
2023-07-03T04:13:37.925Z,3.08
2023-07-03T04:16:41.050Z,3.35
2023-07-03T04:19:43.877Z,3.70
2023-07-03T04:22:47.390Z,3.50
2023-07-03T04:25:51.120Z,3.27
2023-07-03T04:28:55.545Z,3.40
2023-07-03T04:31:58.370Z,3.60
2023-07-03T04:35:01.944Z,3.60
2023-07-03T04:38:05.175Z,3.37
2023-07-03T04:41:08.753Z,3.70
2023-07-03T04:44:13.841Z,3.63
2023-07-03T04:47:17.743Z,3.50
2023-07-03T04:50:26.059Z,3.40
2023-07-03T04:53:29.253Z,3.10
2023-07-03T04:56:34.662Z,3.37
2023-07-03T04:59:38.771Z,3.47
2023-07-03T05:02:41.690Z,3.65
2023-07-03T05:05:44.409Z,3.40
2023-07-03T05:08:48.211Z,3.90
2023-07-03T05:11:50.981Z,3.67
2023-07-03T05:14:56.144Z,3.28
2023-07-03T05:17:59.688Z,3.88
2023-07-03T05:21:02.883Z,4.13
2023-07-03T05:24:05.969Z,3.47
2023-07-03T05:27:08.970Z,3.70
2023-07-03T05:30:14.215Z,3.65
2023-07-03T05:33:17.130Z,4.13
2023-07-03T05:36:20.222Z,3.80
2023-07-03T05:39:22.995Z,4.30
2023-07-03T05:42:26.173Z,4.20
2023-07-03T05:45:30.279Z,3.80
2023-07-03T05:48:32.983Z,3.75
2023-07-03T05:51:35.704Z,4.10
2023-07-03T05:54:38.530Z,4.47
2023-07-03T05:57:41.275Z,4.90
2023-07-03T06:00:46.385Z,4.05
2023-07-03T06:03:49.836Z,3.67
2023-07-03T06:06:54.448Z,4.20
2023-07-03T06:09:58.620Z,3.83
2023-07-03T06:13:01.436Z,3.55
2023-07-03T06:16:06.183Z,4.10
2023-07-03T06:19:08.947Z,3.90
2023-07-03T06:22:11.697Z,3.97
2023-07-03T06:25:14.558Z,3.80
2023-07-03T06:28:17.274Z,3.50
2023-07-03T06:31:21.553Z,4.15
2023-07-03T06:34:24.457Z,3.80
2023-07-03T06:37:27.206Z,4.17
2023-07-03T06:40:29.985Z,3.93
2023-07-03T06:43:32.833Z,3.10
2023-07-03T06:46:36.987Z,3.65
2023-07-03T06:49:39.892Z,3.63
2023-07-03T06:52:43.696Z,3.40
2023-07-03T06:55:46.573Z,3.53
2023-07-03T06:58:49.970Z,3.60
2023-07-03T07:01:54.254Z,3.38
2023-07-03T07:04:59.378Z,3.67
2023-07-03T07:08:03.638Z,3.57
2023-07-03T07:11:10.642Z,3.50
2023-07-03T07:14:13.419Z,3.50
2023-07-03T07:17:17.555Z,3.58
2023-07-03T07:20:20.671Z,3.35
2023-07-03T07:23:23.456Z,3.20
2023-07-03T07:26:29.591Z,3.77
2023-07-03T07:29:32.475Z,3.47
2023-07-03T07:32:37.248Z,3.13
2023-07-03T07:35:40.260Z,3.70
2023-07-03T07:38:43.421Z,3.60
2023-07-03T07:41:46.911Z,4.03
2023-07-03T07:44:50.279Z,3.97
2023-07-03T07:47:54.900Z,3.53
2023-07-03T07:50:58.124Z,3.35
2023-07-03T07:54:01.011Z,3.50
2023-07-03T07:57:04.050Z,3.10
2023-07-03T08:00:08.161Z,3.75
2023-07-03T08:03:12.498Z,3.83
2023-07-03T08:06:16.756Z,4.10
2023-07-03T08:09:19.450Z,3.83
2023-07-03T08:12:22.766Z,3.60
2023-07-03T08:15:25.718Z,3.58
2023-07-03T08:18:29.958Z,3.50
2023-07-03T08:21:32.877Z,3.38
2023-07-03T08:24:35.653Z,3.80
2023-07-03T08:27:38.474Z,3.80
2023-07-03T08:30:41.145Z,3.08
2023-07-03T08:33:45.276Z,3.90
2023-07-03T08:39:53.762Z,3.50
2023-07-03T08:42:59.331Z,3.43
2023-07-03T08:46:03.573Z,2.97
2023-07-03T08:49:08.754Z,3.33
2023-07-03T08:52:11.996Z,3.38
2023-07-03T08:55:20.684Z,3.77
2023-07-03T08:58:23.435Z,3.00
2023-07-03T09:01:34.218Z,3.25
2023-07-03T09:04:53.507Z,2.95
2023-07-03T09:08:00.403Z,3.47
2023-07-03T09:11:04.348Z,4.23
2023-07-03T09:14:10.653Z,3.67
2023-07-03T09:17:14.408Z,3.40
2023-07-03T09:20:19.152Z,3.17
2023-07-03T09:23:26.034Z,3.40
2023-07-03T09:26:35.356Z,3.13
2023-07-03T09:29:40.164Z,3.03
2023-07-03T09:32:43.045Z,2.97
2023-07-03T09:35:48.911Z,3.10
2023-07-03T09:38:51.991Z,2.80
2023-07-03T09:42:06.277Z,3.97
2023-07-03T09:45:16.249Z,2.93
2023-07-03T09:48:24.173Z,2.80
2023-07-03T09:51:31.278Z,2.80
2023-07-03T09:54:34.885Z,2.85
2023-07-03T09:57:39.818Z,2.87
2023-07-03T10:00:49.375Z,2.47
2023-07-03T10:04:04.216Z,2.53
2023-07-03T10:07:27.874Z,2.50
2023-07-03T10:13:46.602Z,2.30
2023-07-03T10:16:51.400Z,2.40
2023-07-03T10:19:59.261Z,2.72
2023-07-03T10:23:06.743Z,2.25
2023-07-03T10:26:15.289Z,2.80
2023-07-03T10:29:24.405Z,2.20
2023-07-03T10:32:34.253Z,2.60
2023-07-03T10:35:37.361Z,2.28
2023-07-03T10:38:50.845Z,2.40
2023-07-03T10:41:59.101Z,2.83
2023-07-03T10:45:06.374Z,3.07
2023-07-03T10:48:15.150Z,2.87
2023-07-03T10:51:24.974Z,2.60
2023-07-03T10:54:33.760Z,2.63
2023-07-03T11:01:12.833Z,2.60
2023-07-03T11:04:25.817Z,2.90
2023-07-03T11:07:34.940Z,2.80
2023-07-03T11:10:49.668Z,2.70
2023-07-03T11:14:00.961Z,2.40
2023-07-03T11:17:14.509Z,2.60
2023-07-03T11:20:26.074Z,3.00
2023-07-03T11:23:36.143Z,2.83
2023-07-03T11:29:48.202Z,2.70
2023-07-03T11:32:52.265Z,2.77
2023-07-03T11:35:56.274Z,2.47
2023-07-03T11:45:32.881Z,2.72
2023-07-03T11:48:46.514Z,2.80
2023-07-03T11:51:49.265Z,2.50
2023-07-03T11:58:27.454Z,2.30
2023-07-03T12:01:32.068Z,2.60
2023-07-03T12:04:52.718Z,2.10
2023-07-03T12:07:55.664Z,2.67
2023-07-03T12:11:00.329Z,5.50
2023-07-03T12:14:04.404Z,3.17
2023-07-03T12:17:18.124Z,2.55
2023-07-03T12:20:23.106Z,2.80
2023-07-03T12:23:35.683Z,2.53
2023-07-03T12:26:51.986Z,2.42
2023-07-03T12:29:56.107Z,1.90
2023-07-03T12:33:00.609Z,2.17
2023-07-03T12:36:03.398Z,2.90
2023-07-03T12:39:14.418Z,2.53
2023-07-03T12:42:22.519Z,2.88
2023-07-03T12:45:28.916Z,2.80
2023-07-03T12:48:31.657Z,2.60
2023-07-03T12:51:39.329Z,2.63
2023-07-03T12:54:42.143Z,2.60
2023-07-03T12:57:46.013Z,2.53
2023-07-03T13:01:00.672Z,2.47
2023-07-03T13:04:04.827Z,3.00
2023-07-03T13:07:07.866Z,2.43
2023-07-03T13:10:15.327Z,2.33
2023-07-03T13:13:20.777Z,2.30
2023-07-03T13:16:24.924Z,2.00
2023-07-03T13:19:31.612Z,2.70
2023-07-03T13:22:34.624Z,2.20
2023-07-03T13:25:39.635Z,1.80
2023-07-03T13:28:52.635Z,2.08
2023-07-03T13:32:14.352Z,1.67
2023-07-03T13:35:28.281Z,2.00
2023-07-03T13:38:33.000Z,2.30
2023-07-03T13:41:36.834Z,2.13
2023-07-03T13:44:39.662Z,2.00
2023-07-03T13:47:44.972Z,2.30
2023-07-03T13:50:49.168Z,2.33
2023-07-03T13:53:56.271Z,2.40
2023-07-03T13:57:02.590Z,2.50
2023-07-03T14:00:06.354Z,2.05
2023-07-03T14:03:10.980Z,2.42
2023-07-03T14:06:14.547Z,1.92
2023-07-03T14:09:17.638Z,2.77
2023-07-03T14:12:20.518Z,2.10
2023-07-03T14:15:26.570Z,2.05
2023-07-03T14:18:30.922Z,2.28
2023-07-03T14:21:34.589Z,2.40
2023-07-03T14:24:37.290Z,2.47
2023-07-03T14:27:41.195Z,2.13
2023-07-03T14:30:44.083Z,2.13
2023-07-03T14:33:48.323Z,2.22
2023-07-03T14:36:51.179Z,2.22
2023-07-03T14:39:54.055Z,2.40
2023-07-03T14:42:56.909Z,2.50
2023-07-03T14:45:59.799Z,2.13
2023-07-03T14:49:04.038Z,1.98
2023-07-03T14:52:07.232Z,2.30
2023-07-03T14:55:10.798Z,2.60
2023-07-03T14:58:14.034Z,2.50
2023-07-03T15:01:16.808Z,2.35
2023-07-03T15:04:21.236Z,2.70
2023-07-03T15:07:24.311Z,2.15
2023-07-03T15:10:27.346Z,2.37
2023-07-03T15:13:30.236Z,2.20
2023-07-03T15:16:34.875Z,2.25
2023-07-03T15:19:39.525Z,2.20
2023-07-03T15:22:42.363Z,2.38
2023-07-03T15:25:45.084Z,2.30
2023-07-03T15:28:48.036Z,2.27
2023-07-03T15:31:51.329Z,2.03
2023-07-03T15:34:55.957Z,2.38
2023-07-03T15:37:58.724Z,2.33
2023-07-03T15:41:01.668Z,2.57
2023-07-03T15:44:04.870Z,2.43
2023-07-03T15:47:08.685Z,2.20
2023-07-03T15:50:13.123Z,2.72
2023-07-03T15:53:15.990Z,2.40
2023-07-03T15:56:19.999Z,2.17
2023-07-03T15:59:23.318Z,2.80
2023-07-03T16:02:26.088Z,2.45
2023-07-03T16:05:30.350Z,2.70
2023-07-03T16:08:35.029Z,2.10
2023-07-03T16:11:38.308Z,2.13
2023-07-03T16:14:41.356Z,2.20
2023-07-03T16:17:44.153Z,2.40
2023-07-03T16:20:56.065Z,2.35
2023-07-03T16:23:59.778Z,2.20
2023-07-03T16:27:04.452Z,2.03
2023-07-03T16:30:09.072Z,1.90
2023-07-03T16:33:11.825Z,2.10
2023-07-03T16:36:17.448Z,2.50
2023-07-03T16:39:20.305Z,2.25
2023-07-03T16:42:23.070Z,2.50
2023-07-03T16:45:25.851Z,2.40
2023-07-03T16:48:29.827Z,2.97
2023-07-03T16:51:34.041Z,2.70
2023-07-03T16:54:37.200Z,2.72
2023-07-03T16:57:39.927Z,2.60
2023-07-03T17:00:43.054Z,2.75
2023-07-03T17:03:46.196Z,2.83
2023-07-03T17:06:50.739Z,2.70
2023-07-03T17:09:53.464Z,2.92
2023-07-03T17:12:56.409Z,2.88
2023-07-03T17:15:59.507Z,2.80
2023-07-03T17:19:02.245Z,2.90
2023-07-03T17:22:07.691Z,2.77
2023-07-03T17:25:11.170Z,2.83
2023-07-03T17:28:15.650Z,2.70
2023-07-03T17:31:24.647Z,2.83
2023-07-03T17:34:27.890Z,3.00
2023-07-03T17:37:32.073Z,2.90
2023-07-03T17:40:34.863Z,2.78
2023-07-03T17:43:38.035Z,2.60
2023-07-03T17:46:41.330Z,2.30
2023-07-03T17:49:44.072Z,2.40
2023-07-03T17:52:48.256Z,2.60
2023-07-03T17:55:51.411Z,2.63
2023-07-03T17:58:54.631Z,2.90
2023-07-03T18:01:57.980Z,2.70
2023-07-03T18:05:00.957Z,2.80
2023-07-03T18:08:05.536Z,2.60
2023-07-03T18:11:08.452Z,2.70
2023-07-03T18:14:11.354Z,2.83
2023-07-03T18:17:14.281Z,3.25
2023-07-03T18:20:17.078Z,2.80
2023-07-03T18:23:21.419Z,2.70
2023-07-03T18:26:24.206Z,2.70
2023-07-03T18:29:27.420Z,2.50
2023-07-03T18:32:34.792Z,2.92
2023-07-03T18:35:38.197Z,2.80
2023-07-03T18:38:42.865Z,3.00
2023-07-03T18:41:45.704Z,2.70
2023-07-03T18:44:48.516Z,2.90
2023-07-03T18:47:51.279Z,2.88
2023-07-03T18:50:54.190Z,2.70
2023-07-03T18:53:58.425Z,2.70
2023-07-03T18:57:01.340Z,2.75
2023-07-03T19:00:05.380Z,3.08
2023-07-03T19:03:08.247Z,2.50
2023-07-03T19:06:15.375Z,2.80
2023-07-03T19:09:19.941Z,2.30
2023-07-03T19:12:24.556Z,2.78
2023-07-03T19:15:27.490Z,2.88
2023-07-03T19:18:31.060Z,2.83
2023-07-03T19:21:33.905Z,2.63
2023-07-03T19:24:39.447Z,2.57
2023-07-03T19:27:42.224Z,2.70
2023-07-03T19:30:52.456Z,2.60
2023-07-03T19:33:56.168Z,3.05
2023-07-03T19:37:00.530Z,2.90
2023-07-03T19:40:08.498Z,2.77
2023-07-03T19:43:11.597Z,2.63
2023-07-03T19:46:14.474Z,2.80
2023-07-03T19:49:17.205Z,2.53
2023-07-03T19:52:22.266Z,3.03
2023-07-03T19:55:28.066Z,3.03
2023-07-03T19:58:31.276Z,2.92
2023-07-03T20:01:34.328Z,2.90
2023-07-03T20:04:37.910Z,2.72
2023-07-03T20:07:41.018Z,3.07
2023-07-03T20:10:47.706Z,3.00
2023-07-03T20:13:51.153Z,2.78
2023-07-03T20:16:54.295Z,3.10
2023-07-03T20:19:57.646Z,2.90
2023-07-03T20:23:00.581Z,3.30
2023-07-03T20:26:05.081Z,2.60
2023-07-03T20:29:07.841Z,2.65
2023-07-03T20:32:11.102Z,3.22
2023-07-03T20:35:13.833Z,3.20
2023-07-03T20:38:18.928Z,3.23
2023-07-03T20:41:24.076Z,2.97
2023-07-03T20:44:27.060Z,3.13
2023-07-03T20:47:31.877Z,3.53
2023-07-03T20:50:34.804Z,3.28
2023-07-03T20:53:59.480Z,3.30
2023-07-03T20:57:05.401Z,3.13
2023-07-03T21:00:13.681Z,3.47
2023-07-03T21:03:16.562Z,3.05
2023-07-03T21:06:21.096Z,3.40
2023-07-03T21:09:24.389Z,3.23
2023-07-03T21:12:28.657Z,3.17
2023-07-03T21:15:34.329Z,3.30
2023-07-03T21:18:37.907Z,3.95
2023-07-03T21:21:41.696Z,3.28
2023-07-03T21:24:44.727Z,3.40
2023-07-03T21:27:48.972Z,3.80
2023-07-03T21:30:52.055Z,3.25
2023-07-03T21:33:55.246Z,3.38
2023-07-03T21:36:58.002Z,3.38
2023-07-03T21:40:04.024Z,3.50
2023-07-03T21:43:08.139Z,3.50
2023-07-03T21:46:14.691Z,3.60
2023-07-03T21:49:18.088Z,3.67
2023-07-03T21:52:20.931Z,3.30
2023-07-03T21:55:23.856Z,3.50
2023-07-03T21:58:27.984Z,3.50
2023-07-03T22:01:34.402Z,3.53
2023-07-03T22:04:37.512Z,3.50
2023-07-03T22:07:40.311Z,3.53
2023-07-03T22:10:43.176Z,3.80
2023-07-03T22:13:47.516Z,3.30
2023-07-03T22:16:50.407Z,3.80
2023-07-03T22:19:53.575Z,3.60
2023-07-03T22:22:56.313Z,3.43
2023-07-03T22:26:00.576Z,3.30
2023-07-03T22:29:04.710Z,3.70
2023-07-03T22:32:08.876Z,3.67
2023-07-03T22:35:12.345Z,3.53
2023-07-03T22:38:15.199Z,3.30
2023-07-03T22:41:18.114Z,3.08
2023-07-03T22:44:22.250Z,3.83
2023-07-03T22:47:25.262Z,3.08
2023-07-03T22:50:28.586Z,3.20
2023-07-03T22:53:31.317Z,3.33
2023-07-03T22:56:34.148Z,3.10
2023-07-03T22:59:38.240Z,2.97
2023-07-03T23:02:41.181Z,3.20
2023-07-03T23:05:46.018Z,3.60
2023-07-03T23:08:50.517Z,2.63
2023-07-03T23:11:54.361Z,3.20
2023-07-03T23:14:58.773Z,3.42
2023-07-03T23:18:01.642Z,2.88
2023-07-03T23:21:10.355Z,3.30
2023-07-03T23:24:13.088Z,3.23
2023-07-03T23:27:20.573Z,2.90
2023-07-03T23:30:24.672Z,3.08
2023-07-03T23:33:28.265Z,3.03
2023-07-03T23:36:31.609Z,2.70
2023-07-03T23:39:34.972Z,3.10
2023-07-03T23:42:37.854Z,2.92
2023-07-03T23:45:44.159Z,3.20
2023-07-03T23:48:46.994Z,3.15
2023-07-03T23:51:53.171Z,3.03
2023-07-03T23:54:58.794Z,3.27
2023-07-03T23:58:01.768Z,3.45
